Terminal Aerodrome Forecast
Issued by NWS Omaha/Valley, NE

Home | Current Version | Previous Version | Text Only | Print | Product List | Glossary Off
Versions: 1 2 3 4 5 6 7 8 9 10 11 12 13 14 15 16 17 18 19 20 21 22 23 24 25 26 27 28 29 30 31 32 33 34 35 36 37 38 39 40 41 42 43 44 45 46 47 48 49 50

000
FTUS43 KOAX 231839 AAA
TAFOFK
TAF AMD
KOFK 231839Z 2319/2418 16015G23KT P6SM VCTS OVC015CB
     FM232000 16015G23KT P6SM VCSH OVC025
     FM240000 16012KT P6SM VCSH OVC025
     FM240400 16010KT P6SM -SHRA VCTS OVC040CB
     FM240700 21007KT 5SM -RA OVC050
     FM240900 27007KT 5SM -RA OVC015
     FM241200 02010KT 5SM -RA OVC008=

USA.gov is the U.S. government's official web portal to all federal, state and local government web resources and services.